sensor_id;sensor_type;location;lat;lon;timestamp;temperature;humidity
981;DHT22;479;53.514;9.994;2022-07-05T00:01:07;16.70;99.90
981;DHT22;479;53.514;9.994;2022-07-05T00:03:34;16.70;99.90
981;DHT22;479;53.514;9.994;2022-07-05T00:06:01;16.60;99.90
981;DHT22;479;53.514;9.994;2022-07-05T00:08:27;16.60;99.90
981;DHT22;479;53.514;9.994;2022-07-05T00:10:54;16.60;99.90
981;DHT22;479;53.514;9.994;2022-07-05T00:13:21;16.50;99.90
981;DHT22;479;53.514;9.994;2022-07-05T00:15:48;16.50;99.90
981;DHT22;479;53.514;9.994;2022-07-05T00:18:17;16.50;99.90
981;DHT22;479;53.514;9.994;2022-07-05T00:20:44;16.50;99.90
981;DHT22;479;53.514;9.994;2022-07-05T00:23:11;16.40;99.90
981;DHT22;479;53.514;9.994;2022-07-05T00:25:38;16.40;99.90
981;DHT22;479;53.514;9.994;2022-07-05T00:28:05;16.30;99.90
981;DHT22;479;53.514;9.994;2022-07-05T00:30:32;16.30;99.90
981;DHT22;479;53.514;9.994;2022-07-05T00:32:59;16.30;99.90
981;DHT22;479;53.514;9.994;2022-07-05T00:35:27;16.30;99.90
981;DHT22;479;53.514;9.994;2022-07-05T00:37:54;16.20;99.90
981;DHT22;479;53.514;9.994;2022-07-05T00:40:21;16.20;99.90
981;DHT22;479;53.514;9.994;2022-07-05T00:42:48;16.10;99.90
981;DHT22;479;53.514;9.994;2022-07-05T00:45:14;16.10;99.90
981;DHT22;479;53.514;9.994;2022-07-05T00:47:41;16.20;99.90
981;DHT22;479;53.514;9.994;2022-07-05T00:50:09;16.10;99.90
981;DHT22;479;53.514;9.994;2022-07-05T00:52:37;16.10;99.90
981;DHT22;479;53.514;9.994;2022-07-05T00:55:05;16.10;99.90
981;DHT22;479;53.514;9.994;2022-07-05T00:57:33;16.10;99.90
981;DHT22;479;53.514;9.994;2022-07-05T01:00:01;16.10;99.90
981;DHT22;479;53.514;9.994;2022-07-05T01:02:28;16.10;99.90
981;DHT22;479;53.514;9.994;2022-07-05T01:04:55;16.10;99.90
981;DHT22;479;53.514;9.994;2022-07-05T01:07:22;16.00;99.90
981;DHT22;479;53.514;9.994;2022-07-05T01:09:52;16.00;99.90
981;DHT22;479;53.514;9.994;2022-07-05T01:12:19;16.00;99.90
981;DHT22;479;53.514;9.994;2022-07-05T01:14:46;15.90;99.90
981;DHT22;479;53.514;9.994;2022-07-05T01:17:15;15.90;99.90
981;DHT22;479;53.514;9.994;2022-07-05T01:19:42;15.90;99.90
981;DHT22;479;53.514;9.994;2022-07-05T01:22:15;15.90;99.90
981;DHT22;479;53.514;9.994;2022-07-05T01:24:45;15.80;99.90
981;DHT22;479;53.514;9.994;2022-07-05T01:27:12;15.80;99.90
981;DHT22;479;53.514;9.994;2022-07-05T01:29:39;15.80;99.90
981;DHT22;479;53.514;9.994;2022-07-05T01:32:07;15.80;99.90
981;DHT22;479;53.514;9.994;2022-07-05T01:34:37;15.80;99.90
981;DHT22;479;53.514;9.994;2022-07-05T01:37:04;15.80;99.90
981;DHT22;479;53.514;9.994;2022-07-05T01:39:32;15.70;99.90
981;DHT22;479;53.514;9.994;2022-07-05T01:42:00;15.70;99.90
981;DHT22;479;53.514;9.994;2022-07-05T01:44:27;15.60;99.90
981;DHT22;479;53.514;9.994;2022-07-05T01:47:02;15.60;99.90
981;DHT22;479;53.514;9.994;2022-07-05T01:49:32;15.60;99.90
981;DHT22;479;53.514;9.994;2022-07-05T01:52:02;15.60;99.90
981;DHT22;479;53.514;9.994;2022-07-05T01:54:32;15.50;99.90
981;DHT22;479;53.514;9.994;2022-07-05T01:57:01;15.50;99.90
981;DHT22;479;53.514;9.994;2022-07-05T01:59:28;15.50;99.90
981;DHT22;479;53.514;9.994;2022-07-05T02:01:55;15.50;99.90
981;DHT22;479;53.514;9.994;2022-07-05T02:04:22;15.40;99.90
981;DHT22;479;53.514;9.994;2022-07-05T02:06:49;15.40;99.90
981;DHT22;479;53.514;9.994;2022-07-05T02:09:16;15.40;99.90
981;DHT22;479;53.514;9.994;2022-07-05T02:11:43;15.30;99.90
981;DHT22;479;53.514;9.994;2022-07-05T02:14:12;15.30;99.90
981;DHT22;479;53.514;9.994;2022-07-05T02:16:40;15.30;99.90
981;DHT22;479;53.514;9.994;2022-07-05T02:19:07;15.20;99.90
981;DHT22;479;53.514;9.994;2022-07-05T02:21:38;15.20;99.90
981;DHT22;479;53.514;9.994;2022-07-05T02:24:09;15.20;99.90
981;DHT22;479;53.514;9.994;2022-07-05T02:26:43;15.10;99.90
981;DHT22;479;53.514;9.994;2022-07-05T02:29:11;15.10;99.90
981;DHT22;479;53.514;9.994;2022-07-05T02:31:40;15.10;99.90
981;DHT22;479;53.514;9.994;2022-07-05T02:34:08;15.00;99.90
981;DHT22;479;53.514;9.994;2022-07-05T02:36:34;15.00;99.90
981;DHT22;479;53.514;9.994;2022-07-05T02:39:01;15.00;99.90
981;DHT22;479;53.514;9.994;2022-07-05T02:41:28;15.00;99.90
981;DHT22;479;53.514;9.994;2022-07-05T02:43:55;15.00;99.90
981;DHT22;479;53.514;9.994;2022-07-05T02:46:28;15.00;99.90
981;DHT22;479;53.514;9.994;2022-07-05T02:48:59;15.00;99.90
981;DHT22;479;53.514;9.994;2022-07-05T02:51:30;15.00;99.90
981;DHT22;479;53.514;9.994;2022-07-05T02:53:57;15.00;99.90
981;DHT22;479;53.514;9.994;2022-07-05T02:56:24;15.00;99.90
981;DHT22;479;53.514;9.994;2022-07-05T02:58:52;15.10;99.90
981;DHT22;479;53.514;9.994;2022-07-05T03:01:21;15.10;99.90
981;DHT22;479;53.514;9.994;2022-07-05T03:03:50;15.00;99.90
981;DHT22;479;53.514;9.994;2022-07-05T03:06:18;15.00;99.90
981;DHT22;479;53.514;9.994;2022-07-05T03:08:46;15.00;99.90
981;DHT22;479;53.514;9.994;2022-07-05T03:11:12;15.00;99.90
981;DHT22;479;53.514;9.994;2022-07-05T03:13:39;14.90;99.90
981;DHT22;479;53.514;9.994;2022-07-05T03:16:06;14.90;99.90
981;DHT22;479;53.514;9.994;2022-07-05T03:18:33;14.90;99.90
981;DHT22;479;53.514;9.994;2022-07-05T03:21:04;14.80;99.90
981;DHT22;479;53.514;9.994;2022-07-05T03:23:33;14.80;99.90
981;DHT22;479;53.514;9.994;2022-07-05T03:26:00;14.80;99.90
981;DHT22;479;53.514;9.994;2022-07-05T03:28:28;14.80;99.90
981;DHT22;479;53.514;9.994;2022-07-05T03:30:57;14.80;99.90
981;DHT22;479;53.514;9.994;2022-07-05T03:33:25;14.80;99.90
981;DHT22;479;53.514;9.994;2022-07-05T03:35:53;14.80;99.90
981;DHT22;479;53.514;9.994;2022-07-05T03:38:21;14.80;99.90
981;DHT22;479;53.514;9.994;2022-07-05T03:40:48;14.70;99.90
981;DHT22;479;53.514;9.994;2022-07-05T03:43:15;14.80;99.90
981;DHT22;479;53.514;9.994;2022-07-05T03:45:42;14.80;99.90
981;DHT22;479;53.514;9.994;2022-07-05T03:48:09;14.70;99.90
981;DHT22;479;53.514;9.994;2022-07-05T03:50:36;14.80;99.90
981;DHT22;479;53.514;9.994;2022-07-05T03:53:03;14.80;99.90
981;DHT22;479;53.514;9.994;2022-07-05T03:55:32;14.80;99.90
981;DHT22;479;53.514;9.994;2022-07-05T03:57:59;14.80;99.90
981;DHT22;479;53.514;9.994;2022-07-05T04:00:26;14.80;99.90
981;DHT22;479;53.514;9.994;2022-07-05T04:03:01;14.90;99.90
981;DHT22;479;53.514;9.994;2022-07-05T04:05:28;14.80;99.90
981;DHT22;479;53.514;9.994;2022-07-05T04:07:55;14.80;99.90
981;DHT22;479;53.514;9.994;2022-07-05T04:10:28;14.80;99.90
981;DHT22;479;53.514;9.994;2022-07-05T04:12:56;14.80;99.90
981;DHT22;479;53.514;9.994;2022-07-05T04:15:26;14.80;99.90
981;DHT22;479;53.514;9.994;2022-07-05T04:17:56;14.90;99.90
981;DHT22;479;53.514;9.994;2022-07-05T04:20:26;14.90;99.90
981;DHT22;479;53.514;9.994;2022-07-05T04:22:55;15.00;99.90
981;DHT22;479;53.514;9.994;2022-07-05T04:25:23;15.00;99.90
981;DHT22;479;53.514;9.994;2022-07-05T04:28:11;15.00;99.90
981;DHT22;479;53.514;9.994;2022-07-05T04:30:39;15.10;99.90
981;DHT22;479;53.514;9.994;2022-07-05T04:33:09;15.20;99.90
981;DHT22;479;53.514;9.994;2022-07-05T04:35:37;15.30;99.90
981;DHT22;479;53.514;9.994;2022-07-05T04:38:05;15.30;99.90
981;DHT22;479;53.514;9.994;2022-07-05T04:40:34;15.30;99.90
981;DHT22;479;53.514;9.994;2022-07-05T04:43:02;15.30;99.90
981;DHT22;479;53.514;9.994;2022-07-05T04:45:30;15.30;99.90
981;DHT22;479;53.514;9.994;2022-07-05T04:47:58;15.40;99.90
981;DHT22;479;53.514;9.994;2022-07-05T04:50:27;15.40;99.90
981;DHT22;479;53.514;9.994;2022-07-05T04:52:55;15.50;99.90
981;DHT22;479;53.514;9.994;2022-07-05T04:55:22;15.50;99.90
981;DHT22;479;53.514;9.994;2022-07-05T04:57:49;15.50;99.90
981;DHT22;479;53.514;9.994;2022-07-05T05:00:16;15.60;99.90
981;DHT22;479;53.514;9.994;2022-07-05T05:02:44;15.50;99.90
981;DHT22;479;53.514;9.994;2022-07-05T05:05:11;15.70;99.90
981;DHT22;479;53.514;9.994;2022-07-05T05:07:41;15.70;99.90
981;DHT22;479;53.514;9.994;2022-07-05T05:10:09;15.90;99.90
981;DHT22;479;53.514;9.994;2022-07-05T05:12:35;15.80;99.90
981;DHT22;479;53.514;9.994;2022-07-05T05:15:03;15.80;99.90
981;DHT22;479;53.514;9.994;2022-07-05T05:17:34;15.80;99.90
981;DHT22;479;53.514;9.994;2022-07-05T05:20:06;15.80;99.90
981;DHT22;479;53.514;9.994;2022-07-05T05:22:33;15.80;99.90
981;DHT22;479;53.514;9.994;2022-07-05T05:25:00;15.90;99.90
981;DHT22;479;53.514;9.994;2022-07-05T05:27:27;15.90;99.90
981;DHT22;479;53.514;9.994;2022-07-05T05:29:54;16.00;99.90
981;DHT22;479;53.514;9.994;2022-07-05T05:32:21;15.90;99.90
981;DHT22;479;53.514;9.994;2022-07-05T05:34:48;16.00;99.90
981;DHT22;479;53.514;9.994;2022-07-05T05:37:16;16.10;99.90
981;DHT22;479;53.514;9.994;2022-07-05T05:39:43;16.20;99.90
981;DHT22;479;53.514;9.994;2022-07-05T05:42:10;16.30;99.90
981;DHT22;479;53.514;9.994;2022-07-05T05:44:37;16.30;99.90
981;DHT22;479;53.514;9.994;2022-07-05T05:47:04;16.40;99.90
981;DHT22;479;53.514;9.994;2022-07-05T05:49:31;16.40;99.90
981;DHT22;479;53.514;9.994;2022-07-05T05:51:58;16.60;99.90
981;DHT22;479;53.514;9.994;2022-07-05T05:54:26;16.60;99.90
981;DHT22;479;53.514;9.994;2022-07-05T05:56:53;16.70;99.90
981;DHT22;479;53.514;9.994;2022-07-05T05:59:20;16.80;99.90
981;DHT22;479;53.514;9.994;2022-07-05T06:01:47;17.00;99.90
981;DHT22;479;53.514;9.994;2022-07-05T06:04:14;17.10;99.90
981;DHT22;479;53.514;9.994;2022-07-05T06:06:41;17.20;99.90
981;DHT22;479;53.514;9.994;2022-07-05T06:09:08;17.30;99.90
981;DHT22;479;53.514;9.994;2022-07-05T06:11:36;17.20;99.90
981;DHT22;479;53.514;9.994;2022-07-05T06:14:03;17.30;99.90
981;DHT22;479;53.514;9.994;2022-07-05T06:16:29;17.30;99.90
981;DHT22;479;53.514;9.994;2022-07-05T06:18:56;17.50;99.90
981;DHT22;479;53.514;9.994;2022-07-05T06:21:23;17.50;99.90
981;DHT22;479;53.514;9.994;2022-07-05T06:23:50;17.50;99.90
981;DHT22;479;53.514;9.994;2022-07-05T06:26:17;17.70;99.90
981;DHT22;479;53.514;9.994;2022-07-05T06:28:45;17.80;99.90
981;DHT22;479;53.514;9.994;2022-07-05T06:31:12;18.00;99.90
981;DHT22;479;53.514;9.994;2022-07-05T06:33:39;18.00;99.90
981;DHT22;479;53.514;9.994;2022-07-05T06:36:06;18.10;99.90
981;DHT22;479;53.514;9.994;2022-07-05T06:38:33;18.10;99.90
981;DHT22;479;53.514;9.994;2022-07-05T06:41:00;18.10;99.90
981;DHT22;479;53.514;9.994;2022-07-05T06:43:26;18.00;99.90
981;DHT22;479;53.514;9.994;2022-07-05T06:45:57;18.10;99.90
981;DHT22;479;53.514;9.994;2022-07-05T06:48:25;18.30;99.90
981;DHT22;479;53.514;9.994;2022-07-05T06:50:52;18.30;99.90
981;DHT22;479;53.514;9.994;2022-07-05T06:53:19;18.40;99.90
981;DHT22;479;53.514;9.994;2022-07-05T06:55:46;18.70;99.90
981;DHT22;479;53.514;9.994;2022-07-05T06:58:12;18.80;99.90
981;DHT22;479;53.514;9.994;2022-07-05T07:00:40;19.00;99.90
981;DHT22;479;53.514;9.994;2022-07-05T07:03:09;18.60;99.90
981;DHT22;479;53.514;9.994;2022-07-05T07:05:36;18.60;99.90
981;DHT22;479;53.514;9.994;2022-07-05T07:08:03;18.60;99.90
981;DHT22;479;53.514;9.994;2022-07-05T07:10:48;18.90;99.90
981;DHT22;479;53.514;9.994;2022-07-05T07:13:14;19.20;99.90
981;DHT22;479;53.514;9.994;2022-07-05T07:15:41;19.30;99.90
981;DHT22;479;53.514;9.994;2022-07-05T07:18:10;19.20;99.90
981;DHT22;479;53.514;9.994;2022-07-05T07:20:36;19.30;99.90
981;DHT22;479;53.514;9.994;2022-07-05T07:23:03;19.30;99.90
981;DHT22;479;53.514;9.994;2022-07-05T07:25:30;19.10;99.90
981;DHT22;479;53.514;9.994;2022-07-05T07:27:57;19.10;99.90
981;DHT22;479;53.514;9.994;2022-07-05T07:30:25;19.10;99.90
981;DHT22;479;53.514;9.994;2022-07-05T07:32:53;19.20;99.90
981;DHT22;479;53.514;9.994;2022-07-05T07:35:21;19.40;99.90
981;DHT22;479;53.514;9.994;2022-07-05T07:37:48;19.50;99.90
981;DHT22;479;53.514;9.994;2022-07-05T07:40:15;19.70;99.90
981;DHT22;479;53.514;9.994;2022-07-05T07:42:43;19.60;99.90
981;DHT22;479;53.514;9.994;2022-07-05T07:45:11;19.50;99.90
981;DHT22;479;53.514;9.994;2022-07-05T07:47:38;19.70;99.90
981;DHT22;479;53.514;9.994;2022-07-05T07:50:06;19.80;99.90
981;DHT22;479;53.514;9.994;2022-07-05T07:52:34;19.90;99.90
981;DHT22;479;53.514;9.994;2022-07-05T07:55:03;19.80;99.90
981;DHT22;479;53.514;9.994;2022-07-05T07:57:30;20.10;94.80
981;DHT22;479;53.514;9.994;2022-07-05T07:59:57;19.90;90.50
981;DHT22;479;53.514;9.994;2022-07-05T08:02:24;19.50;90.40
981;DHT22;479;53.514;9.994;2022-07-05T08:04:52;19.70;89.50
981;DHT22;479;53.514;9.994;2022-07-05T08:07:19;20.00;83.30
981;DHT22;479;53.514;9.994;2022-07-05T08:09:47;20.50;75.70
981;DHT22;479;53.514;9.994;2022-07-05T08:12:15;21.10;72.30
981;DHT22;479;53.514;9.994;2022-07-05T08:14:42;21.20;68.40
981;DHT22;479;53.514;9.994;2022-07-05T08:17:09;21.80;65.80
981;DHT22;479;53.514;9.994;2022-07-05T08:19:36;21.90;64.20
981;DHT22;479;53.514;9.994;2022-07-05T08:22:21;22.40;64.20
981;DHT22;479;53.514;9.994;2022-07-05T08:24:50;22.20;63.40
981;DHT22;479;53.514;9.994;2022-07-05T08:27:17;21.80;58.20
981;DHT22;479;53.514;9.994;2022-07-05T08:29:44;21.50;56.70
981;DHT22;479;53.514;9.994;2022-07-05T08:32:11;21.30;55.00
981;DHT22;479;53.514;9.994;2022-07-05T08:34:38;21.50;54.60
981;DHT22;479;53.514;9.994;2022-07-05T08:37:05;21.70;54.90
981;DHT22;479;53.514;9.994;2022-07-05T08:39:32;21.50;52.10
981;DHT22;479;53.514;9.994;2022-07-05T08:42:01;21.30;51.90
981;DHT22;479;53.514;9.994;2022-07-05T08:44:29;21.50;52.80
981;DHT22;479;53.514;9.994;2022-07-05T08:47:03;21.90;52.30
981;DHT22;479;53.514;9.994;2022-07-05T08:49:31;22.20;52.20
981;DHT22;479;53.514;9.994;2022-07-05T08:52:02;22.50;53.50
981;DHT22;479;53.514;9.994;2022-07-05T08:54:30;23.30;53.20
981;DHT22;479;53.514;9.994;2022-07-05T08:56:57;23.50;50.50
981;DHT22;479;53.514;9.994;2022-07-05T08:59:25;24.00;50.40
981;DHT22;479;53.514;9.994;2022-07-05T09:01:53;23.70;51.10
981;DHT22;479;53.514;9.994;2022-07-05T09:04:22;24.20;51.10
981;DHT22;479;53.514;9.994;2022-07-05T09:06:50;23.80;52.00
981;DHT22;479;53.514;9.994;2022-07-05T09:09:22;24.00;52.90
981;DHT22;479;53.514;9.994;2022-07-05T09:11:49;23.80;51.00
981;DHT22;479;53.514;9.994;2022-07-05T09:14:19;23.10;50.50
981;DHT22;479;53.514;9.994;2022-07-05T09:16:48;23.10;52.50
981;DHT22;479;53.514;9.994;2022-07-05T09:19:15;23.10;51.60
981;DHT22;479;53.514;9.994;2022-07-05T09:21:42;23.30;47.90
981;DHT22;479;53.514;9.994;2022-07-05T09:24:10;23.60;48.30
981;DHT22;479;53.514;9.994;2022-07-05T09:26:38;23.00;50.10
981;DHT22;479;53.514;9.994;2022-07-05T09:29:07;22.50;52.00
981;DHT22;479;53.514;9.994;2022-07-05T09:31:35;22.50;53.10
981;DHT22;479;53.514;9.994;2022-07-05T09:34:08;22.30;53.70
981;DHT22;479;53.514;9.994;2022-07-05T09:36:47;22.50;53.10
981;DHT22;479;53.514;9.994;2022-07-05T09:39:14;22.30;53.80
981;DHT22;479;53.514;9.994;2022-07-05T09:41:41;22.30;54.40
981;DHT22;479;53.514;9.994;2022-07-05T09:44:08;22.30;53.80
981;DHT22;479;53.514;9.994;2022-07-05T09:46:35;22.70;52.80
981;DHT22;479;53.514;9.994;2022-07-05T09:49:02;22.60;52.00
981;DHT22;479;53.514;9.994;2022-07-05T09:51:47;22.30;52.50
981;DHT22;479;53.514;9.994;2022-07-05T09:54:14;22.10;51.20
981;DHT22;479;53.514;9.994;2022-07-05T09:56:45;22.40;50.80
981;DHT22;479;53.514;9.994;2022-07-05T09:59:17;22.70;50.50
981;DHT22;479;53.514;9.994;2022-07-05T10:01:45;23.10;50.70
981;DHT22;479;53.514;9.994;2022-07-05T10:04:12;23.10;49.50
981;DHT22;479;53.514;9.994;2022-07-05T10:06:41;22.80;49.80
981;DHT22;479;53.514;9.994;2022-07-05T10:09:08;22.60;51.00
981;DHT22;479;53.514;9.994;2022-07-05T10:11:39;22.90;51.60
981;DHT22;479;53.514;9.994;2022-07-05T10:14:11;23.70;51.30
981;DHT22;479;53.514;9.994;2022-07-05T10:16:38;24.00;50.00
981;DHT22;479;53.514;9.994;2022-07-05T10:19:09;24.70;50.30
981;DHT22;479;53.514;9.994;2022-07-05T10:21:42;25.10;49.30
981;DHT22;479;53.514;9.994;2022-07-05T10:24:10;24.60;49.60
981;DHT22;479;53.514;9.994;2022-07-05T10:26:38;24.40;48.20
981;DHT22;479;53.514;9.994;2022-07-05T10:29:07;23.90;48.50
981;DHT22;479;53.514;9.994;2022-07-05T10:31:36;24.00;49.10
981;DHT22;479;53.514;9.994;2022-07-05T10:34:03;24.00;48.30
981;DHT22;479;53.514;9.994;2022-07-05T10:36:34;24.00;48.20
981;DHT22;479;53.514;9.994;2022-07-05T10:39:05;24.50;48.40
981;DHT22;479;53.514;9.994;2022-07-05T10:41:32;25.00;49.00
981;DHT22;479;53.514;9.994;2022-07-05T10:43:59;25.10;48.20
981;DHT22;479;53.514;9.994;2022-07-05T10:46:33;25.20;47.40
981;DHT22;479;53.514;9.994;2022-07-05T10:49:12;25.90;46.10
981;DHT22;479;53.514;9.994;2022-07-05T10:51:40;25.80;45.00
981;DHT22;479;53.514;9.994;2022-07-05T10:54:09;25.60;46.20
981;DHT22;479;53.514;9.994;2022-07-05T10:56:36;25.80;45.60
981;DHT22;479;53.514;9.994;2022-07-05T10:59:05;24.80;45.80
981;DHT22;479;53.514;9.994;2022-07-05T11:01:37;25.50;46.70
981;DHT22;479;53.514;9.994;2022-07-05T11:04:24;25.50;45.40
981;DHT22;479;53.514;9.994;2022-07-05T11:06:53;25.00;46.10
981;DHT22;479;53.514;9.994;2022-07-05T11:09:23;25.30;47.00
981;DHT22;479;53.514;9.994;2022-07-05T11:12:14;24.30;46.90
981;DHT22;479;53.514;9.994;2022-07-05T11:14:48;23.70;49.00
981;DHT22;479;53.514;9.994;2022-07-05T11:17:23;23.50;50.20
981;DHT22;479;53.514;9.994;2022-07-05T11:20:14;23.90;51.00
981;DHT22;479;53.514;9.994;2022-07-05T11:23:09;24.40;49.00
981;DHT22;479;53.514;9.994;2022-07-05T11:25:40;24.50;47.90
981;DHT22;479;53.514;9.994;2022-07-05T11:28:13;24.20;47.90
981;DHT22;479;53.514;9.994;2022-07-05T11:30:56;24.20;48.30
981;DHT22;479;53.514;9.994;2022-07-05T11:33:35;24.10;47.90
981;DHT22;479;53.514;9.994;2022-07-05T11:36:04;23.90;49.30
981;DHT22;479;53.514;9.994;2022-07-05T11:38:33;23.50;48.80
981;DHT22;479;53.514;9.994;2022-07-05T11:41:12;23.30;49.80
981;DHT22;479;53.514;9.994;2022-07-05T11:43:40;23.10;50.60
981;DHT22;479;53.514;9.994;2022-07-05T11:46:11;23.10;50.50
981;DHT22;479;53.514;9.994;2022-07-05T11:48:38;22.90;51.20
981;DHT22;479;53.514;9.994;2022-07-05T11:51:15;23.20;51.20
981;DHT22;479;53.514;9.994;2022-07-05T11:53:43;23.40;51.30
981;DHT22;479;53.514;9.994;2022-07-05T11:56:13;23.70;51.60
981;DHT22;479;53.514;9.994;2022-07-05T11:58:40;24.10;50.30
981;DHT22;479;53.514;9.994;2022-07-05T12:01:07;23.80;51.00
981;DHT22;479;53.514;9.994;2022-07-05T12:03:34;23.90;50.80
981;DHT22;479;53.514;9.994;2022-07-05T12:06:10;23.70;50.20
981;DHT22;479;53.514;9.994;2022-07-05T12:08:38;23.40;50.40
981;DHT22;479;53.514;9.994;2022-07-05T12:11:05;23.30;50.90
981;DHT22;479;53.514;9.994;2022-07-05T12:13:50;23.60;50.20
981;DHT22;479;53.514;9.994;2022-07-05T12:16:17;23.40;49.90
981;DHT22;479;53.514;9.994;2022-07-05T12:18:49;23.50;50.10
981;DHT22;479;53.514;9.994;2022-07-05T12:21:17;23.30;49.60
981;DHT22;479;53.514;9.994;2022-07-05T12:23:46;23.10;50.00
981;DHT22;479;53.514;9.994;2022-07-05T12:26:14;22.90;49.90
981;DHT22;479;53.514;9.994;2022-07-05T12:28:42;23.20;50.60
981;DHT22;479;53.514;9.994;2022-07-05T12:31:19;23.30;50.70
981;DHT22;479;53.514;9.994;2022-07-05T12:33:47;23.50;49.30
981;DHT22;479;53.514;9.994;2022-07-05T12:36:15;23.50;48.90
981;DHT22;479;53.514;9.994;2022-07-05T12:38:42;23.70;48.40
981;DHT22;479;53.514;9.994;2022-07-05T12:41:09;23.40;48.80
981;DHT22;479;53.514;9.994;2022-07-05T12:43:50;23.00;49.90
981;DHT22;479;53.514;9.994;2022-07-05T12:46:35;23.00;50.60
981;DHT22;479;53.514;9.994;2022-07-05T12:49:03;22.90;50.00
981;DHT22;479;53.514;9.994;2022-07-05T12:51:36;22.80;50.70
981;DHT22;479;53.514;9.994;2022-07-05T12:54:06;22.80;51.10
981;DHT22;479;53.514;9.994;2022-07-05T12:56:52;22.60;51.60
981;DHT22;479;53.514;9.994;2022-07-05T12:59:37;22.80;52.00
981;DHT22;479;53.514;9.994;2022-07-05T13:02:07;23.10;51.50
981;DHT22;479;53.514;9.994;2022-07-05T13:04:34;23.00;51.10
981;DHT22;479;53.514;9.994;2022-07-05T13:07:02;22.90;51.00
981;DHT22;479;53.514;9.994;2022-07-05T13:09:32;22.90;52.20
981;DHT22;479;53.514;9.994;2022-07-05T13:12:10;23.10;51.80
981;DHT22;479;53.514;9.994;2022-07-05T13:14:39;23.30;51.90
981;DHT22;479;53.514;9.994;2022-07-05T13:17:08;23.30;51.70
981;DHT22;479;53.514;9.994;2022-07-05T13:19:36;23.20;51.80
981;DHT22;479;53.514;9.994;2022-07-05T13:22:03;23.10;52.10
981;DHT22;479;53.514;9.994;2022-07-05T13:24:31;23.10;51.30
981;DHT22;479;53.514;9.994;2022-07-05T13:26:58;23.00;51.40
981;DHT22;479;53.514;9.994;2022-07-05T13:29:25;23.00;51.90
981;DHT22;479;53.514;9.994;2022-07-05T13:31:52;23.00;52.40
981;DHT22;479;53.514;9.994;2022-07-05T13:34:21;22.80;52.50
981;DHT22;479;53.514;9.994;2022-07-05T13:36:49;22.70;53.40
981;DHT22;479;53.514;9.994;2022-07-05T13:39:16;22.40;53.20
981;DHT22;479;53.514;9.994;2022-07-05T13:41:43;22.20;53.80
981;DHT22;479;53.514;9.994;2022-07-05T13:44:11;22.10;54.30
981;DHT22;479;53.514;9.994;2022-07-05T13:46:37;21.90;54.30
981;DHT22;479;53.514;9.994;2022-07-05T13:49:05;21.60;54.40
981;DHT22;479;53.514;9.994;2022-07-05T13:51:33;21.50;55.20
981;DHT22;479;53.514;9.994;2022-07-05T13:54:00;21.30;57.40
981;DHT22;479;53.514;9.994;2022-07-05T13:56:27;21.20;58.90
981;DHT22;479;53.514;9.994;2022-07-05T13:58:54;20.80;60.60
981;DHT22;479;53.514;9.994;2022-07-05T14:01:22;20.70;62.00
981;DHT22;479;53.514;9.994;2022-07-05T14:03:52;20.60;62.80
981;DHT22;479;53.514;9.994;2022-07-05T14:06:19;20.70;64.20
981;DHT22;479;53.514;9.994;2022-07-05T14:08:47;21.00;64.90
981;DHT22;479;53.514;9.994;2022-07-05T14:11:14;21.30;64.40
981;DHT22;479;53.514;9.994;2022-07-05T14:13:41;21.60;63.20
981;DHT22;479;53.514;9.994;2022-07-05T14:16:08;21.70;60.40
981;DHT22;479;53.514;9.994;2022-07-05T14:18:35;21.60;61.10
981;DHT22;479;53.514;9.994;2022-07-05T14:21:02;21.50;62.20
981;DHT22;479;53.514;9.994;2022-07-05T14:23:30;21.40;63.00
981;DHT22;479;53.514;9.994;2022-07-05T14:25:59;21.30;63.50
981;DHT22;479;53.514;9.994;2022-07-05T14:28:27;21.40;64.80
981;DHT22;479;53.514;9.994;2022-07-05T14:30:54;21.50;65.00
981;DHT22;479;53.514;9.994;2022-07-05T14:33:21;21.40;65.40
981;DHT22;479;53.514;9.994;2022-07-05T14:35:48;21.40;65.80
981;DHT22;479;53.514;9.994;2022-07-05T14:38:15;21.40;65.60
981;DHT22;479;53.514;9.994;2022-07-05T14:40:41;21.30;66.90
981;DHT22;479;53.514;9.994;2022-07-05T14:43:10;21.50;67.50
981;DHT22;479;53.514;9.994;2022-07-05T14:45:37;21.80;68.40
981;DHT22;479;53.514;9.994;2022-07-05T14:48:04;21.80;70.70
981;DHT22;479;53.514;9.994;2022-07-05T14:50:31;21.90;69.80
981;DHT22;479;53.514;9.994;2022-07-05T14:52:58;21.80;68.10
981;DHT22;479;53.514;9.994;2022-07-05T14:55:31;21.40;69.10
981;DHT22;479;53.514;9.994;2022-07-05T14:57:58;21.30;72.60
981;DHT22;479;53.514;9.994;2022-07-05T15:00:27;21.30;78.40
981;DHT22;479;53.514;9.994;2022-07-05T15:02:53;21.20;79.20
981;DHT22;479;53.514;9.994;2022-07-05T15:05:20;21.40;80.20
981;DHT22;479;53.514;9.994;2022-07-05T15:07:48;21.40;86.30
981;DHT22;479;53.514;9.994;2022-07-05T15:10:15;21.50;86.50
981;DHT22;479;53.514;9.994;2022-07-05T15:12:42;21.60;84.30
981;DHT22;479;53.514;9.994;2022-07-05T15:15:10;21.70;80.40
981;DHT22;479;53.514;9.994;2022-07-05T15:17:38;21.70;78.50
981;DHT22;479;53.514;9.994;2022-07-05T15:20:05;21.60;77.60
981;DHT22;479;53.514;9.994;2022-07-05T15:22:32;21.30;76.60
981;DHT22;479;53.514;9.994;2022-07-05T15:24:59;21.20;80.70
981;DHT22;479;53.514;9.994;2022-07-05T15:27:26;21.10;79.50
981;DHT22;479;53.514;9.994;2022-07-05T15:29:57;21.00;79.80
981;DHT22;479;53.514;9.994;2022-07-05T15:32:24;21.00;81.30
981;DHT22;479;53.514;9.994;2022-07-05T15:34:52;20.90;83.80
981;DHT22;479;53.514;9.994;2022-07-05T15:37:19;20.90;86.40
981;DHT22;479;53.514;9.994;2022-07-05T15:39:46;21.00;88.00
981;DHT22;479;53.514;9.994;2022-07-05T15:42:13;21.10;89.80
981;DHT22;479;53.514;9.994;2022-07-05T15:44:41;21.10;89.70
981;DHT22;479;53.514;9.994;2022-07-05T15:47:08;21.00;90.50
981;DHT22;479;53.514;9.994;2022-07-05T15:49:35;20.80;91.70
981;DHT22;479;53.514;9.994;2022-07-05T15:52:04;20.80;93.80
981;DHT22;479;53.514;9.994;2022-07-05T15:54:31;20.90;94.20
981;DHT22;479;53.514;9.994;2022-07-05T15:56:59;21.00;93.90
981;DHT22;479;53.514;9.994;2022-07-05T15:59:26;21.00;93.90
981;DHT22;479;53.514;9.994;2022-07-05T16:01:54;21.10;93.70
981;DHT22;479;53.514;9.994;2022-07-05T16:04:20;21.20;92.10
981;DHT22;479;53.514;9.994;2022-07-05T16:06:48;21.20;90.50
981;DHT22;479;53.514;9.994;2022-07-05T16:09:16;21.10;89.80
981;DHT22;479;53.514;9.994;2022-07-05T16:11:43;21.20;90.40
981;DHT22;479;53.514;9.994;2022-07-05T16:14:10;21.10;90.40
981;DHT22;479;53.514;9.994;2022-07-05T16:16:37;21.00;90.90
981;DHT22;479;53.514;9.994;2022-07-05T16:19:04;20.80;91.60
981;DHT22;479;53.514;9.994;2022-07-05T16:21:31;20.80;93.40
981;DHT22;479;53.514;9.994;2022-07-05T16:23:58;20.60;93.20
981;DHT22;479;53.514;9.994;2022-07-05T16:26:27;20.50;94.80
981;DHT22;479;53.514;9.994;2022-07-05T16:28:54;20.50;95.70
981;DHT22;479;53.514;9.994;2022-07-05T16:31:22;20.50;95.70
981;DHT22;479;53.514;9.994;2022-07-05T16:33:50;20.50;96.00
981;DHT22;479;53.514;9.994;2022-07-05T16:36:19;20.50;95.70
981;DHT22;479;53.514;9.994;2022-07-05T16:38:47;20.50;95.20
981;DHT22;479;53.514;9.994;2022-07-05T16:41:14;20.50;95.10
981;DHT22;479;53.514;9.994;2022-07-05T16:43:45;20.40;95.70